createdAt,value
2023-04-04T06:59:24.248Z,57.81
2023-04-04T07:01:21.891Z,57.27
2023-04-04T07:02:23.448Z,57.02
2023-04-04T07:03:25.695Z,57.04
2023-04-04T07:04:27.267Z,56.54
2023-04-04T07:05:29.158Z,55.50
2023-04-04T07:06:31.141Z,54.60
2023-04-04T07:07:32.546Z,56.08
2023-04-04T07:08:36.822Z,55.59
2023-04-04T07:09:38.590Z,54.63
2023-04-04T07:10:41.271Z,56.16
2023-04-04T07:11:42.847Z,57.79
2023-04-04T07:12:44.275Z,56.62
2023-04-04T07:13:45.752Z,54.95
2023-04-04T07:14:47.112Z,54.94
2023-04-04T07:15:51.383Z,54.24
2023-04-04T07:16:53.249Z,53.94
2023-04-04T07:17:54.951Z,52.89
2023-04-04T07:18:56.892Z,53.13
2023-04-04T07:19:58.319Z,52.50
2023-04-04T07:20:59.784Z,52.02
2023-04-04T07:22:01.157Z,50.93
2023-04-04T07:23:02.536Z,50.65
2023-04-04T07:24:04.249Z,49.80
2023-04-04T07:25:06.667Z,50.93
2023-04-04T07:26:08.167Z,50.56
2023-04-04T07:27:09.618Z,50.59
2023-04-04T07:28:13.207Z,49.63
2023-04-04T07:29:15.084Z,48.36
2023-04-04T07:30:16.645Z,49.14
2023-04-04T07:31:18.408Z,49.62
2023-04-04T07:32:19.771Z,48.74
2023-04-04T07:33:21.211Z,49.11
2023-04-04T07:34:22.620Z,48.63
2023-04-04T07:35:24.293Z,49.45
2023-04-04T07:36:25.627Z,50.00
2023-04-04T07:37:27.148Z,49.63
2023-04-04T07:38:28.804Z,49.70
2023-04-04T07:39:30.178Z,49.25
2023-04-04T07:40:32.002Z,47.98
2023-04-04T07:41:33.665Z,48.06
2023-04-04T07:42:35.933Z,47.84
2023-04-04T07:43:38.317Z,46.66
2023-04-04T07:44:39.891Z,46.76
2023-04-04T07:45:41.390Z,47.71
2023-04-04T07:46:42.861Z,47.63
2023-04-04T07:47:45.168Z,47.43
2023-04-04T07:48:46.561Z,47.28
2023-04-04T07:49:48.011Z,46.07
2023-04-04T07:50:49.473Z,45.75
2023-04-04T07:51:50.870Z,46.96
2023-04-04T07:52:54.241Z,46.75
2023-04-04T07:53:56.353Z,45.72
2023-04-04T07:54:57.754Z,45.87
2023-04-04T07:55:59.207Z,44.55
2023-04-04T07:57:00.979Z,44.79
2023-04-04T07:58:02.854Z,45.68
2023-04-04T07:59:04.279Z,47.47
2023-04-04T08:00:09.983Z,47.37
2023-04-04T08:01:11.996Z,47.59
2023-04-04T08:02:13.416Z,46.24
2023-04-04T08:03:15.020Z,44.67
2023-04-04T08:04:16.689Z,43.87
2023-04-04T08:05:18.068Z,43.67
2023-04-04T08:06:19.777Z,43.65
2023-04-04T08:07:21.188Z,44.02
2023-04-04T08:08:22.677Z,45.07
2023-04-04T08:09:24.983Z,43.56
2023-04-04T08:10:27.039Z,43.87
2023-04-04T08:11:28.509Z,44.02
2023-04-04T08:12:29.906Z,42.79
2023-04-04T08:13:31.522Z,42.82
2023-04-04T08:14:33.092Z,43.28
2023-04-04T08:15:34.460Z,43.84
2023-04-04T08:16:35.797Z,43.49
2023-04-04T08:17:37.781Z,41.46
2023-04-04T08:18:39.609Z,44.76
2023-04-04T08:19:41.245Z,47.09
2023-04-04T08:20:43.389Z,47.71
2023-04-04T08:21:45.467Z,47.39
2023-04-04T08:22:46.988Z,45.80
2023-04-04T08:23:48.433Z,45.30
2023-04-04T08:24:49.794Z,44.27
2023-04-04T08:25:51.630Z,43.98
2023-04-04T08:27:04.585Z,43.22
2023-04-04T08:28:06.973Z,44.48
2023-04-04T08:29:08.889Z,45.29
2023-04-04T08:30:10.953Z,44.51
2023-04-04T08:31:13.181Z,43.66
2023-04-04T08:32:15.078Z,43.28
2023-04-04T08:33:17.313Z,42.91
2023-04-04T08:34:20.674Z,42.12
2023-04-04T08:35:22.111Z,42.79
2023-04-04T08:36:23.538Z,43.38
2023-04-04T08:37:24.983Z,43.41
2023-04-04T08:38:26.499Z,43.48
2023-04-04T08:39:28.170Z,44.10
2023-04-04T08:40:32.712Z,44.49
2023-04-04T08:41:38.962Z,43.44
2023-04-04T08:42:44.290Z,43.17
2023-04-04T08:43:49.041Z,44.06
2023-04-04T08:44:53.982Z,43.60
2023-04-04T08:45:56.249Z,46.37
2023-04-04T08:47:02.722Z,48.83
2023-04-04T08:48:06.639Z,47.82
2023-04-04T08:49:09.745Z,47.66
2023-04-04T08:50:13.643Z,47.68
2023-04-04T08:51:17.962Z,47.70
2023-04-04T08:52:33.227Z,47.91
2023-04-04T08:53:37.255Z,48.37
2023-04-04T08:54:40.527Z,50.05
2023-04-04T08:55:44.440Z,48.67
2023-04-04T08:56:46.859Z,50.56
2023-04-04T08:57:49.165Z,50.12
2023-04-04T08:58:50.554Z,51.40
2023-04-04T08:59:52.195Z,51.18
2023-04-04T09:00:54.685Z,50.78
2023-04-04T09:02:14.325Z,50.50
2023-04-04T09:03:24.284Z,48.84
2023-04-04T09:04:27.426Z,48.14
2023-04-04T09:05:29.552Z,47.66
2023-04-04T09:06:34.673Z,46.64
2023-04-04T09:07:39.252Z,46.90
2023-04-04T09:08:42.361Z,45.93
2023-04-04T09:09:47.763Z,46.95
2023-04-04T09:10:49.347Z,47.01
2023-04-04T09:12:57.303Z,47.91
2023-04-04T09:14:04.727Z,48.53
2023-04-04T09:15:06.603Z,47.61
2023-04-04T09:16:08.353Z,45.83
2023-04-04T09:17:11.035Z,45.61
2023-04-04T09:18:12.532Z,45.61
2023-04-04T09:19:13.964Z,45.20
2023-04-04T09:20:33.707Z,44.60
2023-04-04T09:21:35.317Z,43.48
2023-04-04T09:22:44.599Z,43.82
2023-04-04T09:23:46.031Z,46.29
2023-04-04T09:24:48.418Z,47.80
2023-04-04T09:26:03.191Z,46.73
2023-04-04T09:27:07.003Z,45.98
2023-04-04T09:28:08.396Z,45.65
2023-04-04T09:29:10.081Z,46.29
2023-04-04T09:30:11.738Z,47.52
2023-04-04T09:31:14.830Z,47.38
2023-04-04T09:32:17.228Z,46.78
2023-04-04T09:33:24.601Z,45.61
2023-04-04T09:34:28.572Z,47.14
2023-04-04T09:35:33.109Z,45.85
2023-04-04T09:36:35.117Z,45.01
2023-04-04T09:37:37.001Z,45.13
2023-04-04T09:38:45.608Z,45.17
2023-04-04T09:39:48.162Z,44.82
2023-04-04T09:40:49.825Z,43.76
2023-04-04T09:41:51.437Z,43.40
2023-04-04T09:42:54.722Z,41.76
2023-04-04T09:43:57.856Z,43.01
2023-04-04T09:44:59.573Z,41.24
2023-04-04T09:46:01.288Z,40.80
2023-04-04T09:47:30.955Z,44.31
2023-04-04T09:48:35.117Z,44.31
2023-04-04T09:49:36.542Z,45.57
2023-04-04T09:50:46.054Z,45.96
2023-04-04T09:51:54.973Z,46.94
2023-04-04T09:53:00.575Z,44.74
2023-04-04T09:54:02.419Z,43.02
2023-04-04T09:55:05.292Z,41.81
2023-04-04T09:56:07.115Z,41.34
2023-04-04T09:57:08.948Z,42.57
2023-04-04T09:58:15.658Z,42.18
2023-04-04T09:59:18.600Z,41.12
2023-04-04T10:00:21.004Z,40.97
2023-04-04T10:01:24.126Z,42.32
2023-04-04T10:02:26.129Z,41.16
2023-04-04T10:03:28.777Z,40.56
2023-04-04T10:04:32.259Z,40.84
2023-04-04T10:05:33.856Z,39.99
2023-04-04T10:06:37.466Z,39.37
2023-04-04T10:07:40.440Z,38.35
2023-04-04T10:08:43.090Z,39.47
2023-04-04T10:09:47.572Z,38.37
2023-04-04T10:11:06.520Z,38.48
2023-04-04T10:12:11.552Z,38.81
2023-04-04T10:13:13.338Z,38.42
2023-04-04T10:14:15.592Z,39.28
2023-04-04T10:15:17.315Z,40.39
2023-04-04T10:16:18.978Z,39.51
2023-04-04T10:17:21.223Z,37.70
2023-04-04T10:18:27.375Z,37.72
2023-04-04T10:19:29.182Z,38.03
2023-04-04T10:20:31.911Z,37.36
2023-04-04T10:21:34.548Z,37.81
2023-04-04T10:22:38.007Z,37.93
2023-04-04T10:23:41.291Z,36.44
2023-04-04T10:24:42.716Z,37.33
2023-04-04T10:25:44.631Z,37.00
2023-04-04T10:26:46.258Z,38.35
2023-04-04T10:27:49.578Z,37.85
2023-04-04T10:28:52.209Z,37.43
2023-04-04T10:29:53.813Z,38.17
2023-04-04T10:31:06.337Z,38.32
2023-04-04T10:32:16.343Z,36.66
2023-04-04T10:33:28.281Z,36.52
2023-04-04T10:34:42.098Z,37.56
2023-04-04T10:35:47.795Z,36.32
2023-04-04T10:36:51.500Z,35.41
2023-04-04T10:37:58.382Z,34.32
2023-04-04T10:39:23.779Z,33.07
2023-04-04T10:40:34.614Z,35.45
2023-04-04T10:41:36.460Z,35.00
2023-04-04T10:42:47.668Z,34.82
2023-04-04T10:43:52.217Z,34.85
2023-04-04T10:44:54.112Z,37.62
2023-04-04T10:46:01.744Z,36.22
2023-04-04T10:47:22.251Z,36.65
2023-04-04T10:48:26.039Z,35.06
2023-04-04T10:49:28.039Z,33.66
2023-04-04T10:50:31.776Z,34.44
2023-04-04T10:51:39.440Z,34.66
2023-04-04T10:52:47.494Z,34.47
2023-04-04T10:53:49.953Z,34.57
2023-04-04T10:54:57.439Z,33.55
2023-04-04T10:56:01.658Z,34.57
2023-04-04T10:57:04.097Z,34.10
2023-04-04T10:58:06.342Z,34.09
2023-04-04T10:59:15.968Z,33.61
2023-04-04T11:00:19.347Z,33.62
2023-04-04T11:01:22.262Z,33.80
2023-04-04T11:02:43.832Z,32.41
2023-04-04T11:04:21.511Z,31.96
2023-04-04T11:05:51.495Z,35.03
2023-04-04T11:07:09.369Z,35.74
2023-04-04T11:08:14.028Z,34.67
2023-04-04T11:09:15.701Z,36.69
2023-04-04T11:10:23.685Z,35.15
2023-04-04T11:11:26.984Z,34.27
2023-04-04T11:12:34.280Z,35.23
2023-04-04T11:13:35.837Z,35.05
2023-04-04T11:14:37.505Z,34.23
2023-04-04T11:15:59.833Z,33.23
2023-04-04T11:17:10.598Z,33.80
2023-04-04T11:18:27.087Z,34.30
2023-04-04T11:19:33.361Z,33.26
2023-04-04T11:20:36.633Z,32.26
2023-04-04T11:21:39.276Z,31.74
2023-04-04T11:22:42.585Z,34.08
2023-04-04T11:23:49.986Z,35.54
2023-04-04T11:25:00.133Z,33.58
2023-04-04T11:26:03.478Z,34.56
2023-04-04T11:27:06.944Z,33.08
2023-04-04T11:28:14.771Z,36.80
2023-04-04T11:29:53.389Z,37.46
2023-04-04T11:31:20.540Z,33.67
2023-04-04T11:32:50.227Z,34.43
2023-04-04T11:34:13.626Z,32.40
2023-04-04T11:35:15.699Z,33.16
2023-04-04T11:36:50.849Z,33.80
2023-04-04T11:37:55.003Z,33.30
2023-04-04T11:38:58.353Z,33.24
2023-04-04T11:40:09.299Z,33.01
2023-04-04T11:41:11.796Z,33.20
2023-04-04T11:42:14.383Z,32.77
2023-04-04T11:43:17.012Z,32.37
2023-04-04T11:44:19.565Z,32.84
2023-04-04T11:45:21.294Z,31.39
2023-04-04T11:46:23.914Z,31.83
2023-04-04T11:47:25.728Z,31.66
2023-04-04T11:48:27.153Z,30.84
2023-04-04T11:49:30.268Z,30.88
2023-04-04T11:50:36.728Z,30.97
2023-04-04T11:51:41.807Z,31.01
2023-04-04T11:52:43.141Z,30.81
2023-04-04T11:53:48.004Z,32.71
2023-04-04T11:54:50.249Z,34.08
2023-04-04T11:55:53.134Z,34.89
2023-04-04T11:56:54.657Z,33.23
2023-04-04T11:57:58.169Z,32.59
2023-04-04T11:59:10.779Z,32.27
2023-04-04T12:00:27.566Z,33.51
2023-04-04T12:01:29.239Z,34.76
2023-04-04T12:02:34.591Z,33.87
2023-04-04T12:03:36.267Z,36.65
2023-04-04T12:04:41.143Z,36.84
2023-04-04T12:05:44.878Z,38.02
2023-04-04T12:06:54.202Z,36.51
2023-04-04T12:07:55.706Z,36.75
2023-04-04T12:08:57.593Z,35.69
2023-04-04T12:09:59.279Z,35.79
2023-04-04T12:11:06.466Z,34.76
2023-04-04T12:12:12.567Z,34.54
2023-04-04T12:13:15.026Z,34.27
2023-04-04T12:14:22.103Z,34.46
2023-04-04T12:15:23.499Z,33.98
2023-04-04T12:16:24.957Z,33.91
2023-04-04T12:17:29.940Z,34.34
2023-04-04T12:18:31.907Z,34.48
2023-04-04T12:19:38.394Z,34.04
2023-04-04T12:20:41.381Z,33.80
2023-04-04T12:21:42.850Z,33.95
2023-04-04T12:22:48.414Z,34.12
2023-04-04T12:23:49.904Z,33.53
2023-04-04T12:24:51.482Z,32.52
2023-04-04T12:25:55.674Z,32.97
2023-04-04T12:26:58.501Z,34.03
2023-04-04T12:28:02.426Z,33.96
2023-04-04T12:29:05.674Z,34.12
2023-04-04T12:30:15.358Z,33.18
2023-04-04T12:31:17.316Z,32.36
2023-04-04T12:32:19.029Z,32.47
2023-04-04T12:33:21.209Z,32.67
2023-04-04T12:34:24.505Z,31.70
2023-04-04T12:35:26.110Z,31.43
2023-04-04T12:36:29.816Z,31.44
2023-04-04T12:37:31.268Z,31.69
2023-04-04T12:38:32.977Z,30.65
2023-04-04T12:39:34.372Z,31.32
2023-04-04T12:40:37.916Z,32.24
2023-04-04T12:41:53.184Z,31.83
2023-04-04T12:42:55.565Z,31.22
2023-04-04T12:44:02.399Z,32.54
2023-04-04T12:45:05.215Z,32.88
2023-04-04T12:46:08.435Z,33.68
2023-04-04T12:47:11.366Z,33.37
2023-04-04T12:48:14.967Z,33.35
2023-04-04T12:49:22.076Z,32.28
2023-04-04T12:50:26.453Z,31.77
2023-04-04T12:51:32.815Z,32.84
2023-04-04T12:52:39.787Z,33.02
2023-04-04T12:53:59.757Z,33.22
2023-04-04T12:55:09.420Z,32.76
2023-04-04T12:56:11.170Z,32.49
2023-04-04T12:57:18.600Z,32.95
2023-04-04T12:58:22.698Z,32.93
2023-04-04T12:59:28.697Z,32.67
2023-04-04T13:00:30.668Z,32.67
2023-04-04T13:01:33.093Z,32.08
2023-04-04T13:02:36.117Z,33.01
2023-04-04T13:03:38.690Z,32.45
2023-04-04T13:04:40.679Z,32.86
2023-04-04T13:05:47.199Z,33.29
2023-04-04T13:06:48.896Z,32.64
2023-04-04T13:07:50.376Z,32.54
2023-04-04T13:08:53.644Z,32.22
2023-04-04T13:10:00.356Z,33.14
2023-04-04T13:11:05.135Z,31.63
2023-04-04T13:12:08.613Z,33.51
2023-04-04T13:13:09.996Z,33.43
2023-04-04T13:14:13.340Z,34.04
2023-04-04T13:15:16.522Z,34.09
2023-04-04T13:16:38.032Z,33.91
2023-04-04T13:17:50.257Z,33.34
2023-04-04T13:18:51.686Z,33.17
2023-04-04T13:19:53.146Z,33.08
2023-04-04T13:20:55.038Z,33.91
2023-04-04T13:21:56.557Z,33.65
2023-04-04T13:22:58.786Z,33.22
2023-04-04T13:24:02.785Z,33.11
2023-04-04T13:25:05.952Z,33.11
2023-04-04T13:26:09.654Z,32.77
2023-04-04T13:27:11.110Z,32.32
2023-04-04T13:28:13.063Z,31.29
2023-04-04T13:29:14.472Z,31.65
2023-04-04T13:30:16.123Z,31.71
2023-04-04T13:31:17.875Z,31.45
2023-04-04T13:32:19.587Z,32.96
2023-04-04T13:33:22.270Z,31.66
2023-04-04T13:34:27.329Z,33.05
2023-04-04T13:35:28.772Z,33.44
2023-04-04T13:36:31.292Z,31.51
2023-04-04T13:37:32.791Z,32.44
2023-04-04T13:38:34.686Z,32.45
2023-04-04T13:39:36.350Z,32.60
2023-04-04T13:40:37.760Z,33.11
2023-04-04T13:41:39.124Z,32.83
2023-04-04T13:42:40.549Z,32.52
2023-04-04T13:43:41.907Z,31.86
2023-04-04T13:44:43.245Z,32.44
2023-04-04T13:45:45.156Z,32.15
2023-04-04T13:46:46.582Z,32.63
2023-04-04T13:47:48.174Z,32.04
2023-04-04T13:48:49.703Z,32.46
2023-04-04T13:49:51.172Z,32.70
2023-04-04T13:50:54.115Z,31.49
2023-04-04T13:51:55.663Z,30.81
2023-04-04T13:52:57.042Z,32.82
2023-04-04T13:53:58.488Z,32.41
2023-04-04T13:54:59.837Z,32.39
2023-04-04T13:56:17.953Z,32.32
2023-04-04T13:57:20.262Z,32.66
2023-04-04T13:58:21.654Z,32.49
2023-04-04T13:59:23.161Z,32.15
2023-04-04T14:00:25.594Z,32.20
2023-04-04T14:01:27.416Z,32.34
2023-04-04T14:02:28.914Z,31.37
2023-04-04T14:03:30.640Z,31.72
2023-04-04T14:04:32.055Z,32.88
2023-04-04T14:05:33.719Z,34.66
2023-04-04T14:06:35.902Z,36.52
2023-04-04T14:07:38.271Z,36.44
2023-04-04T14:08:39.909Z,34.87
2023-04-04T14:09:41.628Z,34.60
2023-04-04T14:10:43.082Z,33.97
2023-04-04T14:11:46.386Z,33.99
2023-04-04T14:12:47.862Z,32.94
2023-04-04T14:13:51.834Z,32.26
2023-04-04T14:14:53.275Z,33.72
2023-04-04T14:15:54.858Z,33.48
2023-04-04T14:16:56.394Z,32.28
2023-04-04T14:17:57.845Z,35.08
2023-04-04T14:18:59.203Z,35.52
2023-04-04T14:20:00.803Z,36.16
2023-04-04T14:21:03.120Z,35.42
2023-04-04T14:22:05.203Z,33.96
2023-04-04T14:23:06.892Z,34.58
2023-04-04T14:24:08.318Z,33.68
2023-04-04T14:25:09.992Z,33.25
2023-04-04T14:26:11.703Z,34.12
2023-04-04T14:27:13.218Z,33.08
2023-04-04T14:28:14.619Z,32.83
2023-04-04T14:29:16.577Z,32.88
2023-04-04T14:30:17.936Z,32.88
2023-04-04T14:31:19.854Z,33.70
2023-04-04T14:32:21.240Z,32.88
2023-04-04T14:33:22.660Z,33.26
2023-04-04T14:34:26.623Z,33.38
2023-04-04T14:35:28.052Z,32.74
2023-04-04T14:36:30.107Z,32.30
2023-04-04T14:37:31.542Z,32.41
2023-04-04T14:38:33.024Z,31.94
2023-04-04T14:39:34.429Z,32.13
2023-04-04T14:40:36.432Z,31.97
2023-04-04T14:41:37.887Z,31.96
2023-04-04T14:42:39.427Z,32.18
2023-04-04T14:43:41.077Z,31.92
2023-04-04T14:44:42.832Z,32.04
2023-04-04T14:45:44.182Z,31.53
2023-04-04T14:46:45.605Z,31.64
2023-04-04T14:47:47.322Z,31.94
2023-04-04T14:48:48.715Z,31.78
2023-04-04T14:49:50.100Z,31.37
2023-04-04T14:50:52.118Z,31.10
2023-04-04T14:51:53.476Z,32.36
2023-04-04T14:52:56.471Z,32.36
2023-04-04T14:53:58.334Z,32.27
2023-04-04T14:54:59.748Z,31.98
2023-04-04T14:56:01.190Z,32.27
2023-04-04T14:57:03.369Z,32.46
2023-04-04T14:58:04.746Z,31.88
2023-04-04T14:59:06.915Z,31.76
2023-04-04T15:00:09.024Z,32.34
2023-04-04T15:01:11.350Z,33.13
2023-04-04T15:02:12.916Z,32.50
2023-04-04T15:03:14.351Z,31.98
2023-04-04T15:04:16.174Z,31.68
2023-04-04T15:05:18.415Z,31.74
2023-04-04T15:06:21.486Z,31.90
2023-04-04T15:07:24.294Z,32.39
2023-04-04T15:08:25.636Z,32.46
2023-04-04T15:09:26.997Z,33.66
2023-04-04T15:10:28.441Z,32.45
2023-04-04T15:11:29.854Z,33.77
2023-04-04T15:12:31.221Z,33.27
2023-04-04T15:13:33.642Z,33.02
2023-04-04T15:14:35.057Z,33.52
2023-04-04T15:15:36.433Z,33.68
2023-04-04T15:16:38.318Z,33.45
2023-04-04T15:17:40.616Z,34.06
2023-04-04T15:18:42.031Z,33.68
2023-04-04T15:19:43.408Z,33.10
2023-04-04T15:20:44.986Z,33.09
2023-04-04T15:21:48.026Z,32.67
2023-04-04T15:22:49.408Z,32.36
2023-04-04T15:23:50.847Z,32.30
2023-04-04T15:24:52.214Z,31.94
2023-04-04T15:25:53.549Z,32.34
2023-04-04T15:26:56.446Z,32.06
2023-04-04T15:27:58.876Z,32.09
2023-04-04T15:29:00.289Z,31.86
2023-04-04T15:30:01.979Z,32.17
2023-04-04T15:31:03.466Z,31.63
2023-04-04T15:32:04.969Z,32.07
2023-04-04T15:33:06.540Z,31.79
2023-04-04T15:34:09.422Z,31.53
2023-04-04T15:35:16.901Z,31.97
2023-04-04T15:36:18.384Z,30.94
2023-04-04T15:37:20.111Z,30.94
2023-04-04T15:38:22.463Z,32.55
2023-04-04T15:39:24.102Z,32.47
2023-04-04T15:40:25.690Z,32.30
2023-04-04T15:41:27.353Z,31.92
2023-04-04T15:42:29.234Z,32.29
2023-04-04T15:43:31.866Z,32.42
2023-04-04T15:44:33.384Z,32.32
2023-04-04T15:45:34.737Z,32.01
2023-04-04T15:46:36.496Z,32.72
2023-04-04T15:47:37.925Z,32.67
2023-04-04T15:48:39.341Z,32.77
2023-04-04T15:49:40.707Z,33.21
2023-04-04T15:50:42.402Z,34.04
2023-04-04T15:51:45.024Z,34.56
2023-04-04T15:52:46.435Z,34.69
2023-04-04T15:53:47.992Z,35.94
2023-04-04T15:54:49.386Z,36.21
2023-04-04T15:55:50.898Z,35.84
2023-04-04T15:56:52.220Z,35.75
2023-04-04T15:57:53.599Z,35.41
2023-04-04T15:58:55.820Z,35.24
2023-04-04T15:59:57.240Z,34.18
2023-04-04T16:00:58.742Z,33.66
2023-04-04T16:02:00.407Z,32.77
2023-04-04T16:03:02.076Z,33.23
2023-04-04T16:04:03.818Z,33.26
2023-04-04T16:05:06.038Z,33.12
2023-04-04T16:06:12.747Z,34.39
2023-04-04T16:07:14.096Z,33.92
2023-04-04T16:08:15.806Z,34.51
2023-04-04T16:09:17.143Z,34.14
2023-04-04T16:10:18.557Z,33.61
2023-04-04T16:11:19.999Z,33.38
2023-04-04T16:12:21.548Z,33.38
2023-04-04T16:13:23.078Z,33.09
2023-04-04T16:14:24.874Z,32.86
2023-04-04T16:15:26.297Z,33.51
2023-04-04T16:16:27.734Z,33.13
2023-04-04T16:17:30.365Z,33.36
2023-04-04T16:18:33.444Z,33.60
2023-04-04T16:19:34.861Z,32.99
2023-04-04T16:20:36.616Z,33.14
2023-04-04T16:21:38.057Z,33.42
2023-04-04T16:22:39.472Z,34.34
2023-04-04T16:23:40.999Z,34.54
2023-04-04T16:24:42.480Z,34.48
2023-04-04T16:25:44.150Z,34.47
2023-04-04T16:26:48.744Z,34.42
2023-04-04T16:27:50.130Z,34.66
2023-04-04T16:28:51.609Z,34.79
2023-04-04T16:29:53.012Z,35.40
2023-04-04T16:30:54.474Z,35.24
2023-04-04T16:31:56.079Z,34.88
2023-04-04T16:32:57.787Z,35.05
2023-04-04T16:33:59.373Z,35.55
2023-04-04T16:35:00.981Z,35.79
2023-04-04T16:36:02.309Z,35.65
2023-04-04T16:37:03.701Z,35.68
2023-04-04T16:38:06.223Z,35.85
2023-04-04T16:39:07.840Z,36.39
2023-04-04T16:40:09.679Z,37.67
2023-04-04T16:41:11.585Z,37.48
2023-04-04T16:42:13.133Z,37.73
2023-04-04T16:43:14.541Z,38.18
2023-04-04T16:44:15.985Z,38.82
2023-04-04T16:45:17.433Z,39.08
2023-04-04T16:46:19.398Z,39.19
2023-04-04T16:47:20.858Z,39.40
2023-04-04T16:48:22.263Z,39.44
2023-04-04T16:49:23.749Z,39.72
2023-04-04T16:50:25.717Z,39.40
2023-04-04T16:51:28.653Z,38.90
2023-04-04T16:52:30.743Z,39.69
2023-04-04T16:53:32.172Z,39.95
2023-04-04T16:54:33.585Z,40.16
2023-04-04T16:55:35.257Z,40.53
2023-04-04T16:56:36.753Z,40.83
2023-04-04T16:57:38.136Z,41.08
2023-04-04T16:58:39.905Z,41.31
2023-04-04T16:59:41.356Z,41.05
2023-04-04T17:00:43.238Z,41.60
2023-04-04T17:01:45.184Z,41.75
2023-04-04T17:02:46.601Z,42.35
2023-04-04T17:03:48.962Z,41.84
2023-04-04T17:04:51.231Z,42.58
